Time;durP1;ratioP1;P1;durP2;ratioP2;P2;SDS_P1;SDS_P2;PMS_P1;PMS_P2;Temp;Humidity;BMP_temperature;BMP_pressure;BME280_temperature;BME280_humidity;BME280_pressure;Samples;Min_cycle;Max_cycle;Signal;HPM_P1;HPM_P2
2022/12/18 00:02:56;;;;;;;46.33;31.15;;;13.00;99.90;;;;;;5031029;28;20044;-69
2022/12/18 00:06:00;;;;;;;50.83;30.88;;;13.90;99.90;;;;;;5030355;28;20040;-68
2022/12/18 00:09:04;;;;;;;52.60;32.03;;;;;;;;;;5031098;28;20068;-69
2022/12/18 00:12:09;;;;;;;50.55;30.50;;;;;;;;;;5029264;28;20044;-69
2022/12/18 00:15:13;;;;;;;48.92;33.75;;;11.50;99.90;;;;;;5041391;28;20048;-69
2022/12/18 00:18:17;;;;;;;49.65;33.78;;;14.70;99.90;;;;;;5030632;28;20045;-68
2022/12/18 00:21:21;;;;;;;53.17;34.92;;;11.60;99.90;;;;;;5030747;28;20413;-68
2022/12/18 00:24:25;;;;;;;58.85;36.15;;;;;;;;;;5031071;28;20048;-68
2022/12/18 00:27:29;;;;;;;55.63;36.05;;;;;;;;;;5030824;28;20040;-68
2022/12/18 00:30:34;;;;;;;56.42;36.15;;;11.30;99.90;;;;;;5030799;28;20052;-68
2022/12/18 00:33:38;;;;;;;49.70;35.45;;;9.70;99.90;;;;;;5030900;28;20044;-68
2022/12/18 00:36:43;;;;;;;50.33;34.90;;;;;;;;;;5030721;28;20052;-68
2022/12/18 00:39:48;;;;;;;59.83;37.13;;;11.30;99.90;;;;;;5029876;28;20045;-68
2022/12/18 00:43:11;;;;;;;51.05;36.03;;;;;;;;;;5039213;28;20047;-68
2022/12/18 00:46:15;;;;;;;57.42;37.00;;;12.00;99.90;;;;;;5030631;28;20049;-68
2022/12/18 00:49:20;;;;;;;52.35;34.30;;;11.40;99.90;;;;;;5029726;28;20109;-68
2022/12/18 00:52:24;;;;;;;56.25;36.15;;;;;;;;;;5030861;28;20076;-69
2022/12/18 00:55:28;;;;;;;52.95;38.03;;;11.60;99.90;;;;;;5030434;28;20048;-68
2022/12/18 00:58:32;;;;;;;61.50;39.47;;;11.60;99.90;;;;;;5030552;28;20609;-69
2022/12/18 01:01:36;;;;;;;56.03;38.28;;;11.50;99.90;;;;;;5030611;28;20512;-68
2022/12/18 01:04:42;;;;;;;58.95;39.90;;;;;;;;;;5018490;28;20068;-68
2022/12/18 01:07:46;;;;;;;56.35;38.00;;;;;;;;;;5030795;28;20044;-68
2022/12/18 01:10:51;;;;;;;53.85;36.80;;;;;;;;;;5030802;28;20076;-69
2022/12/18 01:13:56;;;;;;;52.58;36.60;;;;;;;;;;5030470;28;20045;-68
2022/12/18 01:17:02;;;;;;;60.47;38.03;;;10.90;99.90;;;;;;5030498;28;20049;-68
2022/12/18 01:20:08;;;;;;;57.47;39.42;;;11.00;99.90;;;;;;5030393;28;20048;-69
2022/12/18 01:23:13;;;;;;;54.65;37.78;;;;;;;;;;5032995;28;20064;-68
2022/12/18 01:26:17;;;;;;;55.33;38.22;;;;;;;;;;5033225;28;20056;-69
2022/12/18 01:29:21;;;;;;;55.63;38.40;;;10.80;99.90;;;;;;5033849;28;20137;-68
2022/12/18 01:32:30;;;;;;;60.03;40.83;;;11.00;99.90;;;;;;5044020;28;20052;-69
2022/12/18 01:35:42;;;;;;;59.85;40.80;;;11.00;99.90;;;;;;5034219;28;20052;-68
2022/12/18 01:38:49;;;;;;;58.30;40.47;;;10.80;99.90;;;;;;5034322;28;20036;-68
2022/12/18 01:42:04;;;;;;;60.63;39.08;;;;;;;;;;5033668;28;20048;-68
2022/12/18 01:45:14;;;;;;;57.40;39.20;;;11.00;99.90;;;;;;5044540;28;20516;-68
2022/12/18 01:48:20;;;;;;;58.38;41.28;;;;;;;;;;5044484;28;20056;-69
2022/12/18 01:51:27;;;;;;;62.45;39.33;;;12.60;99.90;;;;;;5033849;28;20064;-69
2022/12/18 01:54:31;;;;;;;55.78;37.40;;;;;;;;;;5033651;28;20500;-68
2022/12/18 01:57:35;;;;;;;56.33;37.35;;;11.20;99.90;;;;;;5033653;28;20059;-69
2022/12/18 02:00:40;;;;;;;53.95;37.08;;;11.20;99.90;;;;;;5044255;28;20044;-70
2022/12/18 02:03:45;;;;;;;50.20;36.65;;;11.10;99.90;;;;;;5033728;28;20049;-69
2022/12/18 02:06:59;;;;;;;57.10;38.03;;;10.90;99.90;;;;;;5043925;28;20045;-69
2022/12/18 02:10:16;;;;;;;48.25;36.70;;;10.80;99.90;;;;;;5043820;28;20083;-69
2022/12/18 02:13:35;;;;;;;58.80;41.10;;;10.80;99.90;;;;;;5033216;28;20072;-68
2022/12/18 02:16:49;;;;;;;57.13;40.03;;;10.70;99.90;;;;;;5044018;28;20041;-69
2022/12/18 02:20:31;;;;;;;59.35;38.67;;;10.70;99.90;;;;;;5043535;28;20064;-69
2022/12/18 02:24:08;;;;;;;57.47;40.70;;;10.50;99.90;;;;;;5033052;28;20045;-68
2022/12/18 02:27:13;;;;;;;58.72;37.97;;;10.60;99.90;;;;;;5043420;28;20044;-68
2022/12/18 02:30:37;;;;;;;52.33;36.83;;;10.70;99.90;;;;;;5032029;28;20059;-68
2022/12/18 02:33:45;;;;;;;52.10;35.33;;;10.70;99.90;;;;;;5042416;28;20044;-68
2022/12/18 02:36:53;;;;;;;52.67;34.30;;;10.70;99.90;;;;;;5043660;28;20044;-68
2022/12/18 02:39:59;;;;;;;52.55;33.08;;;10.60;99.90;;;;;;5043492;28;20048;-68
2022/12/18 02:43:14;;;;;;;48.70;32.47;;;11.10;99.90;;;;;;5043146;28;20044;-68
2022/12/18 02:46:32;;;;;;;46.15;31.35;;;10.80;99.90;;;;;;5032487;28;20401;-68
2022/12/18 02:49:40;;;;;;;;;;;;;;;;;;5043352;28;20060;-67
2022/12/18 02:53:11;;;;;;;44.33;29.88;;;10.70;99.90;;;;;;5043334;28;20408;-68
2022/12/18 02:56:34;;;;;;;46.58;29.88;;;10.70;99.90;;;;;;5042740;28;20057;-67
2022/12/18 02:59:57;;;;;;;43.95;29.50;;;10.70;99.90;;;;;;5031698;28;20048;-68
2022/12/18 03:03:37;;;;;;;43.13;29.77;;;10.60;99.90;;;;;;5032261;28;20040;-68
2022/12/18 03:06:50;;;;;;;42.75;30.17;;;10.60;99.90;;;;;;5021883;28;20307;-68
2022/12/18 03:09:56;;;;;;;48.78;31.15;;;10.40;99.90;;;;;;5042586;28;20060;-68
2022/12/18 03:13:05;;;;;;;44.97;30.88;;;10.50;99.90;;;;;;5042935;28;20045;-68
2022/12/18 03:16:14;;;;;;;41.25;29.65;;;10.40;99.90;;;;;;5042674;28;20049;-68
2022/12/18 03:19:22;;;;;;;41.70;29.45;;;11.80;99.90;;;;;;5032359;28;20393;-68
2022/12/18 03:22:31;;;;;;;36.13;28.58;;;10.30;99.90;;;;;;5031173;28;20404;-67
2022/12/18 03:25:39;;;;;;;41.92;28.70;;;10.70;99.90;;;;;;5042598;28;20543;-68
2022/12/18 03:28:49;;;;;;;38.42;28.88;;;10.20;99.90;;;;;;5042851;28;20044;-69
2022/12/18 03:31:58;;;;;;;41.67;30.13;;;10.00;99.90;;;;;;5042334;28;20052;-68
2022/12/18 03:35:05;;;;;;;43.88;30.70;;;10.20;99.90;;;;;;5042278;28;20041;-67
2022/12/18 03:38:13;;;;;;;47.97;29.70;;;;;;;;;;5042444;28;20064;-68
2022/12/18 03:41:58;;;;;;;40.47;29.20;;;10.70;99.90;;;;;;5042350;28;20412;-68
2022/12/18 03:45:14;;;;;;;46.70;30.95;;;10.20;99.90;;;;;;5041990;28;20041;-68
2022/12/18 03:48:31;;;;;;;48.53;31.38;;;10.30;99.90;;;;;;5041986;28;20404;-68
2022/12/18 03:52:01;;;;;;;40.55;29.48;;;10.10;99.90;;;;;;5042622;28;20052;-69
2022/12/18 03:55:06;;;;;;;38.72;28.20;;;10.50;99.90;;;;;;5041720;28;20045;-69
2022/12/18 03:58:15;;;;;;;37.17;27.08;;;10.20;99.90;;;;;;5042053;28;20397;-68
2022/12/18 04:01:45;;;;;;;38.70;27.40;;;10.20;99.90;;;;;;5031142;28;20048;-68
2022/12/18 04:04:55;;;;;;;42.03;28.63;;;9.00;99.90;;;;;;5041842;28;20093;-68
2022/12/18 04:08:00;;;;;;;40.90;28.45;;;11.20;99.90;;;;;;5030987;28;20048;-69
2022/12/18 04:11:08;;;;;;;40.03;28.15;;;;;;;;;;5030237;28;20519;-69
2022/12/18 04:14:14;;;;;;;38.17;27.77;;;9.90;99.90;;;;;;5030316;28;20048;-68
2022/12/18 04:17:18;;;;;;;39.13;26.70;;;10.00;99.90;;;;;;5030240;28;20053;-67
2022/12/18 04:20:23;;;;;;;35.63;25.25;;;;;;;;;;5031042;28;20036;-67
2022/12/18 04:23:28;;;;;;;34.22;25.75;;;;;;;;;;5031063;28;20044;-68
2022/12/18 04:26:35;;;;;;;40.65;28.15;;;;;;;;;;5041959;28;20389;-68
2022/12/18 04:29:52;;;;;;;37.45;25.55;;;;;;;;;;5041413;28;20052;-68
2022/12/18 04:32:56;;;;;;;35.47;24.90;;;10.50;99.90;;;;;;5031177;28;20049;-68
2022/12/18 04:36:01;;;;;;;32.92;21.58;;;10.00;99.90;;;;;;5041145;28;20049;-67
2022/12/18 04:39:05;;;;;;;26.98;17.92;;;;;;;;;;5041464;28;20044;-68
2022/12/18 04:42:10;;;;;;;29.85;18.55;;;;;;;;;;5029449;28;20060;-68
2022/12/18 04:45:14;;;;;;;28.67;18.95;;;;;;;;;;5030426;28;20041;-68
2022/12/18 04:48:20;;;;;;;29.48;18.10;;;9.70;99.90;;;;;;5030903;28;20041;-68
2022/12/18 04:51:24;;;;;;;27.13;17.98;;;;;;;;;;5030609;28;20511;-69
2022/12/18 04:54:28;;;;;;;25.52;17.83;;;;;;;;;;5030728;28;20048;-68
2022/12/18 04:57:33;;;;;;;30.23;16.58;;;9.30;99.90;;;;;;5032032;28;20061;-67
2022/12/18 05:00:37;;;;;;;24.48;17.05;;;;;;;;;;5034528;28;20060;-68
2022/12/18 05:03:41;;;;;;;28.67;16.83;;;9.60;99.90;;;;;;5034625;28;20052;-68
2022/12/18 05:06:45;;;;;;;24.50;16.40;;;9.70;99.90;;;;;;5034698;28;20397;-68
2022/12/18 05:09:49;;;;;;;27.60;16.65;;;;;;;;;;5034409;28;20048;-68
2022/12/18 05:12:59;;;;;;;21.40;15.13;;;;;;;;;;5034528;28;20064;-68
2022/12/18 05:16:05;;;;;;;27.60;15.73;;;;;;;;;;5034460;28;20048;-68
2022/12/18 05:19:09;;;;;;;21.13;15.07;;;;;;;;;;5034273;28;20065;-68
2022/12/18 05:22:13;;;;;;;24.88;16.23;;;9.50;99.90;;;;;;5034164;28;20041;-68
2022/12/18 05:25:17;;;;;;;27.20;15.45;;;;;;;;;;5034256;28;20048;-69
2022/12/18 05:28:22;;;;;;;24.95;15.38;;;9.70;99.90;;;;;;5034416;28;20045;-68
2022/12/18 05:31:26;;;;;;;24.65;16.70;;;12.20;99.90;;;;;;5033867;28;20052;-68
2022/12/18 05:34:30;;;;;;;25.45;16.23;;;;;;;;;;5034287;28;20044;-68
2022/12/18 05:37:35;;;;;;;27.25;17.52;;;9.50;99.90;;;;;;5034047;28;20040;-68
2022/12/18 05:40:42;;;;;;;22.60;14.90;;;9.60;99.90;;;;;;5032962;28;20037;-68
2022/12/18 05:43:47;;;;;;;19.75;14.18;;;;;;;;;;5033842;28;20041;-68
2022/12/18 05:46:51;;;;;;;23.20;14.40;;;;;;;;;;5033729;28;20036;-68
2022/12/18 05:49:56;;;;;;;23.13;15.32;;;;;;;;;;5033502;28;20040;-68
2022/12/18 05:53:00;;;;;;;22.95;14.57;;;;;;;;;;5033736;28;20044;-69
2022/12/18 05:56:12;;;;;;;25.40;14.57;;;9.60;99.90;;;;;;5033324;28;20048;-68
2022/12/18 05:59:15;;;;;;;26.42;14.50;;;12.30;99.90;;;;;;5032789;28;20334;-69
2022/12/18 06:02:20;;;;;;;30.20;14.93;;;9.30;99.90;;;;;;5032610;28;20049;-68
2022/12/18 06:05:25;;;;;;;21.13;14.07;;;9.30;99.90;;;;;;5033469;28;20060;-67
2022/12/18 06:08:30;;;;;;;22.60;14.07;;;;;;;;;;5032277;28;20053;-68
2022/12/18 06:11:35;;;;;;;24.13;14.88;;;9.40;99.90;;;;;;5032507;28;20052;-69
2022/12/18 06:14:39;;;;;;;26.25;15.63;;;;;;;;;;5033329;28;20056;-68
2022/12/18 06:17:44;;;;;;;25.27;16.20;;;;;;;;;;5033564;28;20072;-68
2022/12/18 06:20:58;;;;;;;28.27;18.50;;;9.60;99.90;;;;;;5033078;28;20504;-68
2022/12/18 06:24:03;;;;;;;27.27;16.63;;;;;;;;;;5033340;28;20532;-69
2022/12/18 06:27:06;;;;;;;29.33;18.23;;;6.60;99.90;;;;;;5032929;28;20049;-69
2022/12/18 06:30:11;;;;;;;27.35;17.83;;;9.30;99.90;;;;;;5032834;28;20609;-69
2022/12/18 06:33:16;;;;;;;29.90;17.70;;;9.50;99.90;;;;;;5033058;28;20401;-68
2022/12/18 06:36:21;;;;;;;24.00;15.85;;;;;;;;;;5033129;28;20053;-67
2022/12/18 06:39:27;;;;;;;22.38;16.98;;;9.30;99.90;;;;;;5043609;28;20060;-67
2022/12/18 06:42:31;;;;;;;24.10;17.17;;;9.40;99.90;;;;;;5032939;28;20041;-68
2022/12/18 06:45:36;;;;;;;28.45;18.30;;;9.30;99.90;;;;;;5032622;28;20048;-69
2022/12/18 06:48:40;;;;;;;25.42;19.10;;;;;;;;;;5032739;28;20516;-70
2022/12/18 06:51:44;;;;;;;28.45;18.05;;;9.30;99.90;;;;;;5032827;28;20528;-69
2022/12/18 06:54:48;;;;;;;29.70;19.73;;;;;;;;;;5032380;28;20044;-68
2022/12/18 06:57:52;;;;;;;29.02;19.95;;;;;;;;;;5032961;28;20389;-68
2022/12/18 07:01:04;;;;;;;27.33;19.08;;;9.50;99.90;;;;;;5032822;28;20044;-68
2022/12/18 07:04:08;;;;;;;27.27;19.33;;;;;;;;;;5043075;28;20127;-69
2022/12/18 07:07:12;;;;;;;25.48;17.98;;;9.90;99.90;;;;;;5032521;28;20044;-68
2022/12/18 07:10:16;;;;;;;28.13;19.17;;;9.30;99.90;;;;;;5032136;28;20072;-70
2022/12/18 07:13:20;;;;;;;26.08;18.38;;;8.80;99.90;;;;;;5032123;28;20032;-69
2022/12/18 07:16:25;;;;;;;27.65;18.98;;;11.00;99.90;;;;;;5032750;28;20503;-69
2022/12/18 07:19:29;;;;;;;29.20;19.88;;;8.20;99.90;;;;;;5031735;28;20040;-68
2022/12/18 07:22:34;;;;;;;25.75;17.85;;;;;;;;;;5032070;28;20439;-69
2022/12/18 07:25:39;;;;;;;26.70;18.83;;;;;;;;;;5032113;28;20044;-69
2022/12/18 07:28:43;;;;;;;31.08;19.17;;;;;;;;;;5032105;28;20208;-68
2022/12/18 07:31:47;;;;;;;31.85;19.45;;;10.10;99.90;;;;;;5031602;28;20052;-69
2022/12/18 07:34:51;;;;;;;27.95;17.77;;;10.20;99.90;;;;;;5032027;28;20055;-69
2022/12/18 07:37:55;;;;;;;34.22;19.48;;;;;;;;;;5031566;28;20103;-69
2022/12/18 07:41:05;;;;;;;24.73;16.80;;;11.30;99.90;;;;;;5031602;28;20151;-67
2022/12/18 07:44:10;;;;;;;22.17;15.90;;;10.50;99.90;;;;;;5031746;28;20056;-69
2022/12/18 07:47:14;;;;;;;22.13;15.30;;;;;;;;;;5031667;28;20048;-69
2022/12/18 07:50:19;;;;;;;21.20;14.68;;;;;;;;;;5032467;28;20388;-69
2022/12/18 07:53:23;;;;;;;26.13;14.88;;;;;;;;;;5032417;28;20052;-69
2022/12/18 07:56:27;;;;;;;24.65;14.52;;;11.00;99.90;;;;;;5031355;28;20056;-68
2022/12/18 07:59:31;;;;;;;22.42;14.95;;;11.10;99.90;;;;;;5031682;28;20052;-69
2022/12/18 08:02:35;;;;;;;19.40;14.48;;;;;;;;;;5031602;28;20044;-69
2022/12/18 08:05:40;;;;;;;20.58;14.05;;;;;;;;;;5031390;28;20108;-70
2022/12/18 08:08:44;;;;;;;20.40;14.93;;;;;;;;;;5031777;28;20041;-69
2022/12/18 08:11:48;;;;;;;21.13;14.13;;;;;;;;;;5031197;28;20056;-69
2022/12/18 08:14:53;;;;;;;22.00;13.98;;;;;;;;;;5031062;28;20120;-70
2022/12/18 08:17:57;;;;;;;21.25;14.57;;;;;;;;;;5030869;28;20516;-68
2022/12/18 08:21:12;;;;;;;30.23;18.95;;;12.50;99.90;;;;;;5030980;28;20048;-69
2022/12/18 08:24:16;;;;;;;29.75;17.58;;;;;;;;;;5031368;28;20041;-68
2022/12/18 08:27:20;;;;;;;22.35;16.00;;;13.20;99.90;;;;;;5030895;28;20040;-68
2022/12/18 08:30:24;;;;;;;25.35;16.50;;;13.40;99.90;;;;;;5031421;28;20057;-71
2022/12/18 08:33:28;;;;;;;28.80;19.77;;;;;;;;;;5029214;28;20504;-69
2022/12/18 08:36:32;;;;;;;25.52;19.02;;;;;;;;;;5031044;28;20397;-70
2022/12/18 08:39:37;;;;;;;25.45;19.92;;;;;;;;;;5031122;28;20052;-68
2022/12/18 08:46:03;;;;;;;29.63;23.55;;;14.50;99.90;;;;;;5041649;28;20045;-69
2022/12/18 08:49:08;;;;;;;33.55;22.70;;;14.50;99.90;;;;;;5031135;28;20056;-69
2022/12/18 08:52:12;;;;;;;27.48;21.40;;;14.70;99.90;;;;;;5031034;28;20056;-68
2022/12/18 08:55:16;;;;;;;27.50;22.25;;;14.80;99.90;;;;;;5041393;28;20052;-69
2022/12/18 08:58:20;;;;;;;27.52;20.88;;;15.00;99.90;;;;;;5030939;28;20144;-72
2022/12/18 09:01:24;;;;;;;30.00;23.45;;;15.20;99.90;;;;;;5030473;28;20045;-69
2022/12/18 09:04:28;;;;;;;28.15;21.00;;;15.20;99.90;;;;;;5030502;28;20048;-70
2022/12/18 09:07:35;;;;;;;27.13;20.13;;;15.40;99.90;;;;;;5030400;28;20040;-68
2022/12/18 09:10:46;;;;;;;30.73;19.95;;;15.60;99.90;;;;;;5030401;28;20404;-69
2022/12/18 09:13:51;;;;;;;31.95;21.70;;;15.70;99.90;;;;;;5030528;28;20049;-69
2022/12/18 09:16:55;;;;;;;28.65;20.67;;;15.90;99.90;;;;;;5041019;28;20500;-70
2022/12/18 09:19:59;;;;;;;29.50;19.80;;;16.10;99.90;;;;;;5030327;28;20053;-69
2022/12/18 09:23:03;;;;;;;34.97;21.13;;;16.20;99.90;;;;;;5029736;28;20064;-68
2022/12/18 09:26:08;;;;;;;31.30;20.10;;;16.40;99.90;;;;;;5030363;28;20045;-70
2022/12/18 09:29:12;;;;;;;27.48;20.55;;;16.40;99.90;;;;;;5030597;28;20064;-69
2022/12/18 09:32:16;;;;;;;36.58;24.02;;;16.60;99.90;;;;;;5030447;28;20064;-68
2022/12/18 09:35:20;;;;;;;40.78;25.02;;;16.80;99.90;;;;;;5030702;28;20041;-68
2022/12/18 09:38:24;;;;;;;32.42;22.13;;;17.00;99.90;;;;;;5030432;28;20048;-68
2022/12/18 09:41:53;;;;;;;33.17;20.90;;;17.30;99.90;;;;;;5030426;28;20497;-69
2022/12/18 09:44:59;;;;;;;26.10;17.98;;;17.40;99.90;;;;;;5033861;28;20044;-69
2022/12/18 09:48:05;;;;;;;32.67;18.90;;;17.60;99.90;;;;;;5033698;28;20508;-69
2022/12/18 09:51:30;;;;;;;24.25;17.90;;;17.70;99.90;;;;;;5033768;28;20504;-67
2022/12/18 09:54:39;;;;;;;26.42;17.77;;;17.80;99.90;;;;;;5044440;28;20052;-69
2022/12/18 09:57:51;;;;;;;22.48;16.95;;;18.00;99.90;;;;;;5033368;28;20049;-68
2022/12/18 10:00:55;;;;;;;28.05;18.20;;;18.10;99.90;;;;;;5034213;28;20060;-68
2022/12/18 10:04:00;;;;;;;26.35;17.73;;;18.20;99.90;;;;;;5033579;28;20064;-69
2022/12/18 10:07:22;;;;;;;25.67;18.17;;;18.20;99.90;;;;;;5033200;28;20048;-68
2022/12/18 10:10:41;;;;;;;23.55;15.77;;;18.30;99.90;;;;;;5033281;28;20049;-68
2022/12/18 10:13:55;;;;;;;18.65;13.55;;;18.40;99.90;;;;;;5033235;28;20052;-68
2022/12/18 10:17:15;;;;;;;19.95;13.35;;;18.40;99.50;;;;;;5032635;28;20044;-68
2022/12/18 10:20:44;;;;;;;19.92;15.57;;;18.50;99.80;;;;;;5033771;28;20127;-68
2022/12/18 10:24:02;;;;;;;19.88;13.27;;;18.70;99.90;;;;;;5033244;28;20045;-68
2022/12/18 10:27:27;;;;;;;17.50;12.10;;;18.70;99.40;;;;;;5033081;28;20060;-68
2022/12/18 10:30:31;;;;;;;12.85;9.50;;;18.70;99.00;;;;;;5033008;28;20048;-68
2022/12/18 10:33:35;;;;;;;9.43;6.88;;;18.70;98.30;;;;;;5033403;28;20583;-68
2022/12/18 10:36:39;;;;;;;9.73;7.50;;;18.70;98.10;;;;;;5033513;28;20488;-68
2022/12/18 10:39:43;;;;;;;19.30;9.45;;;18.60;97.70;;;;;;5032932;28;20112;-68
2022/12/18 10:43:11;;;;;;;9.75;6.93;;;18.60;98.80;;;;;;5033002;28;20044;-68
2022/12/18 10:46:20;;;;;;;6.63;4.57;;;18.60;98.30;;;;;;5032961;28;20048;-67
2022/12/18 10:49:33;;;;;;;4.35;2.40;;;18.50;97.70;;;;;;5032872;28;20045;-68
2022/12/18 10:52:38;;;;;;;3.13;1.92;;;18.50;96.70;;;;;;5032026;28;20045;-69
2022/12/18 10:55:45;;;;;;;3.45;1.50;;;18.50;96.90;;;;;;5031551;28;20064;-69
2022/12/18 10:59:16;;;;;;;2.00;1.25;;;18.30;96.40;;;;;;5032389;28;20381;-67
2022/12/18 11:02:37;;;;;;;1.55;1.33;;;18.30;96.10;;;;;;5032298;28;20504;-68
2022/12/18 11:05:42;;;;;;;1.83;1.30;;;18.30;95.60;;;;;;5032280;28;20044;-67
2022/12/18 11:09:00;;;;;;;3.10;1.77;;;18.30;95.70;;;;;;5020227;28;20064;-67
2022/12/18 11:12:18;;;;;;;2.75;1.50;;;18.20;95.70;;;;;;5032489;28;20499;-68
2022/12/18 11:15:29;;;;;;;1.77;1.23;;;18.10;95.80;;;;;;5032209;28;20052;-68
2022/12/18 11:18:35;;;;;;;2.05;1.50;;;18.00;96.00;;;;;;5031967;28;20052;-70
2022/12/18 11:21:42;;;;;;;3.92;2.13;;;18.00;96.10;;;;;;5042823;28;20045;-68
2022/12/18 11:24:57;;;;;;;1.83;1.48;;;18.00;95.60;;;;;;5042583;28;20500;-68
2022/12/18 11:28:05;;;;;;;3.30;2.00;;;17.90;95.80;;;;;;5031745;28;20048;-69
2022/12/18 11:31:15;;;;;;;1.63;1.27;;;17.80;95.90;;;;;;5031825;28;20052;-69
2022/12/18 11:34:28;;;;;;;2.42;1.63;;;17.70;95.20;;;;;;5032147;28;20048;-68
2022/12/18 11:37:32;;;;;;;2.10;1.40;;;17.60;95.60;;;;;;5042318;28;20056;-70
2022/12/18 11:40:39;;;;;;;2.38;1.70;;;17.60;95.80;;;;;;5031672;28;20404;-67
2022/12/18 11:43:59;;;;;;;2.67;1.60;;;17.60;95.90;;;;;;5031697;28;20049;-69
2022/12/18 11:47:47;;;;;;;2.22;1.00;;;17.60;95.90;;;;;;5031788;28;20052;-68
2022/12/18 11:50:54;;;;;;;1.35;1.00;;;17.40;95.40;;;;;;5031747;28;20044;-68
2022/12/18 11:54:00;;;;;;;3.28;2.13;;;17.30;95.60;;;;;;5030709;28;20060;-69
2022/12/18 11:57:06;;;;;;;3.72;2.67;;;17.30;96.10;;;;;;5031607;28;20048;-68
2022/12/18 12:00:20;;;;;;;3.55;2.33;;;17.30;95.70;;;;;;5030895;28;20048;-68
2022/12/18 12:03:46;;;;;;;3.33;2.25;;;17.20;95.70;;;;;;5031513;28;20040;-68
2022/12/18 12:07:16;;;;;;;2.85;1.67;;;17.20;96.00;;;;;;5031088;28;20045;-69
2022/12/18 12:10:42;;;;;;;3.27;2.17;;;17.10;95.80;;;;;;5030383;28;20059;-68
2022/12/18 12:14:23;;;;;;;2.03;1.27;;;17.10;96.00;;;;;;5031082;28;20049;-68
2022/12/18 12:17:44;;;;;;;5.95;2.72;;;17.20;96.00;;;;;;5031043;28;20045;-67
2022/12/18 12:21:07;;;;;;;5.45;2.20;;;17.20;95.90;;;;;;5031479;28;20052;-68
2022/12/18 12:24:36;;;;;;;2.70;1.88;;;17.20;96.10;;;;;;5031300;28;20052;-67
2022/12/18 12:27:40;;;;;;;2.05;1.50;;;17.10;95.20;;;;;;5029844;28;20048;-68
2022/12/18 12:30:44;;;;;;;5.13;1.48;;;17.10;95.40;;;;;;5030261;28;20044;-69
2022/12/18 12:34:06;;;;;;;3.33;2.28;;;17.00;94.80;;;;;;5031135;28;20117;-69
2022/12/18 12:37:56;;;;;;;4.82;2.08;;;17.00;95.00;;;;;;5030903;28;20045;-69
2022/12/18 12:41:05;;;;;;;4.70;2.22;;;17.00;95.30;;;;;;5031042;28;20405;-67
2022/12/18 12:44:16;;;;;;;3.50;1.90;;;16.90;95.20;;;;;;5031135;28;20397;-67
2022/12/18 12:47:22;;;;;;;;;;;17.00;95.30;;;;;;5031016;28;20045;-69
2022/12/18 12:50:27;;;;;;;2.95;1.92;;;16.90;95.20;;;;;;5030609;28;19909;-67
2022/12/18 12:53:35;;;;;;;3.20;2.40;;;17.00;95.00;;;;;;5030986;28;20052;-69
2022/12/18 12:56:50;;;;;;;2.17;1.48;;;17.00;94.90;;;;;;5030917;28;20048;-68
2022/12/18 13:00:01;;;;;;;2.03;1.30;;;17.00;94.10;;;;;;5031040;28;20048;-67
2022/12/18 13:03:15;;;;;;;4.00;2.50;;;16.90;94.20;;;;;;5030167;28;20492;-69
2022/12/18 13:06:45;;;;;;;4.55;2.40;;;16.90;94.30;;;;;;5030663;28;20425;-69
2022/12/18 13:10:14;;;;;;;4.10;2.40;;;16.90;94.40;;;;;;5030860;28;20053;-69
2022/12/18 13:13:19;;;;;;;2.42;1.75;;;16.90;94.50;;;;;;5041251;28;20058;-68
2022/12/18 13:16:25;;;;;;;2.38;1.60;;;16.90;94.50;;;;;;5030872;28;20056;-69
2022/12/18 13:19:32;;;;;;;2.45;1.63;;;16.90;94.30;;;;;;5033397;28;20397;-68
2022/12/18 13:22:38;;;;;;;3.45;2.17;;;16.90;94.50;;;;;;5034677;28;20045;-68
2022/12/18 13:25:42;;;;;;;5.20;3.00;;;16.80;94.70;;;;;;5033792;28;20512;-69
2022/12/18 13:28:46;;;;;;;2.53;1.73;;;16.80;95.30;;;;;;5034368;28;20496;-70
2022/12/18 13:31:50;;;;;;;2.60;2.08;;;16.80;95.60;;;;;;5034291;28;20056;-66
2022/12/18 13:35:22;;;;;;;5.70;2.97;;;16.80;94.90;;;;;;5033097;28;20065;-68
2022/12/18 13:38:34;;;;;;;3.92;2.33;;;16.70;95.10;;;;;;5033895;28;20041;-67
2022/12/18 13:41:38;;;;;;;4.13;3.00;;;16.80;94.80;;;;;;5034122;28;20041;-68
2022/12/18 13:44:43;;;;;;;3.63;2.30;;;16.70;94.80;;;;;;5034400;28;20048;-68
2022/12/18 13:47:47;;;;;;;3.42;2.03;;;16.70;94.70;;;;;;5033843;28;20036;-69
2022/12/18 13:51:04;;;;;;;8.73;6.95;;;16.70;94.80;;;;;;5033895;28;20547;-68
2022/12/18 13:54:29;;;;;;;6.15;4.45;;;16.60;94.60;;;;;;5034116;28;20048;-68
2022/12/18 13:57:38;;;;;;;8.75;4.50;;;16.60;94.70;;;;;;5033642;28;20052;-69
2022/12/18 14:00:43;;;;;;;4.88;3.60;;;16.60;95.40;;;;;;5033795;28;20116;-67
2022/12/18 14:03:47;;;;;;;5.22;3.20;;;16.60;95.20;;;;;;5033594;28;20045;-68
2022/12/18 14:06:58;;;;;;;5.85;3.15;;;16.60;95.00;;;;;;5033384;28;20049;-67
2022/12/18 14:10:03;;;;;;;5.43;3.22;;;16.50;95.10;;;;;;5033257;28;20040;-67
2022/12/18 14:13:10;;;;;;;6.15;3.75;;;16.50;95.30;;;;;;5033557;28;20057;-68
2022/12/18 14:16:16;;;;;;;10.90;5.63;;;16.40;94.80;;;;;;5033196;28;20048;-68
2022/12/18 14:19:21;;;;;;;5.38;3.78;;;16.40;94.70;;;;;;5033430;28;20504;-69
2022/12/18 14:22:29;;;;;;;6.35;4.00;;;16.40;95.00;;;;;;5033451;28;20044;-68
2022/12/18 14:25:33;;;;;;;7.57;4.53;;;16.30;95.00;;;;;;5032936;28;20064;-67
2022/12/18 14:28:44;;;;;;;6.20;4.05;;;16.30;94.80;;;;;;5032942;28;20041;-69
2022/12/18 14:32:12;;;;;;;7.63;4.10;;;16.30;95.30;;;;;;5032464;28;20556;-69
2022/12/18 14:35:18;;;;;;;3.10;2.55;;;16.30;95.00;;;;;;5043651;28;20052;-68
2022/12/18 14:38:24;;;;;;;7.13;4.40;;;16.20;94.40;;;;;;5033138;28;20048;-69
2022/12/18 14:41:28;;;;;;;11.98;7.85;;;16.10;94.60;;;;;;5033368;28;20065;-69
2022/12/18 14:44:32;;;;;;;11.48;6.38;;;16.10;94.80;;;;;;5033133;28;20048;-70
2022/12/18 14:47:36;;;;;;;14.15;8.55;;;16.10;95.00;;;;;;5032562;28;20305;-68
2022/12/18 14:50:40;;;;;;;8.23;6.82;;;16.00;94.70;;;;;;5032818;28;20105;-68
2022/12/18 14:53:58;;;;;;;4.20;3.40;;;16.00;94.90;;;;;;5032655;28;20397;-69
2022/12/18 14:57:20;;;;;;;5.32;4.00;;;16.00;94.90;;;;;;5031973;28;20057;-68
2022/12/18 15:00:25;;;;;;;5.47;2.88;;;15.90;94.90;;;;;;5032585;28;20049;-68
2022/12/18 15:03:29;;;;;;;6.28;3.90;;;15.80;94.80;;;;;;5032667;28;20515;-67
2022/12/18 15:06:39;;;;;;;9.20;5.70;;;15.80;95.00;;;;;;5032617;28;20056;-69
2022/12/18 15:10:17;;;;;;;7.90;5.18;;;15.80;95.20;;;;;;5032332;28;20048;-68
2022/12/18 15:13:24;;;;;;;6.95;4.43;;;15.70;95.20;;;;;;5032462;28;20397;-69
2022/12/18 15:16:28;;;;;;;5.55;3.90;;;15.70;95.40;;;;;;5031468;28;20528;-69
2022/12/18 15:19:44;;;;;;;6.70;4.10;;;15.70;95.10;;;;;;5031942;28;20044;-68
2022/12/18 15:22:48;;;;;;;14.02;8.65;;;15.70;95.30;;;;;;5032160;28;20508;-68
2022/12/18 15:26:12;;;;;;;21.23;15.13;;;15.60;95.60;;;;;;5032221;28;20048;-69
2022/12/18 15:29:22;;;;;;;18.02;12.27;;;15.50;95.90;;;;;;5031942;28;20397;-68
2022/12/18 15:32:26;;;;;;;17.52;11.80;;;15.40;96.30;;;;;;5030810;28;20060;-68
2022/12/18 15:35:30;;;;;;;23.05;13.05;;;15.40;96.50;;;;;;5031818;28;20037;-68
2022/12/18 15:38:35;;;;;;;21.15;14.20;;;15.30;96.50;;;;;;5031576;28;20064;-70
2022/12/18 15:41:40;;;;;;;17.08;12.68;;;15.20;96.70;;;;;;5031526;28;20296;-68
2022/12/18 15:44:44;;;;;;;14.20;11.63;;;15.20;96.70;;;;;;5031841;28;20040;-69
2022/12/18 15:47:48;;;;;;;14.15;9.43;;;15.20;96.30;;;;;;5031293;28;20409;-69
2022/12/18 15:50:56;;;;;;;12.65;8.32;;;15.10;96.50;;;;;;5031716;28;20037;-68
2022/12/18 15:54:03;;;;;;;18.13;9.82;;;15.00;96.20;;;;;;5030880;28;20068;-69
2022/12/18 15:57:26;;;;;;;19.58;11.43;;;15.00;96.40;;;;;;5031113;28;20056;-70
2022/12/18 16:00:30;;;;;;;20.85;10.50;;;15.00;96.40;;;;;;5029471;28;20044;-68
2022/12/18 16:03:34;;;;;;;15.00;8.55;;;15.00;96.30;;;;;;5029225;28;20060;-68
2022/12/18 16:06:38;;;;;;;35.65;18.38;;;15.00;96.40;;;;;;5029062;28;20052;-68
2022/12/18 16:09:42;;;;;;;18.65;11.43;;;15.00;96.30;;;;;;5029337;28;20389;-69
2022/12/18 16:12:52;;;;;;;17.23;10.77;;;14.90;96.40;;;;;;5029474;28;20056;-67
2022/12/18 16:15:56;;;;;;;15.68;9.80;;;14.90;96.80;;;;;;5041312;28;20496;-68
2022/12/18 16:19:00;;;;;;;22.55;15.32;;;14.90;96.70;;;;;;5031055;28;20056;-69
2022/12/18 16:22:04;;;;;;;17.25;10.30;;;14.80;96.80;;;;;;5031223;28;20144;-68
2022/12/18 16:25:18;;;;;;;15.68;7.85;;;14.80;96.90;;;;;;5030953;28;20052;-68
2022/12/18 16:28:22;;;;;;;16.40;10.13;;;14.70;96.90;;;;;;5031231;28;20041;-68
2022/12/18 16:31:25;;;;;;;17.80;9.57;;;14.70;96.90;;;;;;5030960;28;20044;-68
2022/12/18 16:34:34;;;;;;;15.23;9.05;;;14.70;97.00;;;;;;5030819;28;20053;-68
2022/12/18 16:37:40;;;;;;;14.75;9.55;;;14.70;97.00;;;;;;5031598;28;20041;-68
2022/12/18 16:44:07;;;;;;;18.33;12.18;;;14.70;97.20;;;;;;5030767;28;20036;-69